Latest Weather Observations for Stenhouse Bay

IDS60801

Issued at 7:02 am CDT Monday 2 March 2015 (issued every 30 minutes, with the page automatically refreshed every 10 minutes)

About weather observations | Map of weather stations | Latest weather observations for SA | Other Formats
Station Details ID: 022049 Name: STENHOUSE BAY Lat: -35.28 Lon: 136.94 Height: 42.0 m
Data from the previous 72 hours. | See also: Recent months at Stenhouse Bay
Date/Time
CDT
Temp
°C
App
Temp
°C
Dew
Point
Rel
Hum
%
Delta-T
°C
Wind Press
QNH
hPa
Press
MSL
hPa
Rain
since 9 am
mm
Dir
 
Spd
km/h
Gust
km/h
Spd
kts
Gust
kts
02/07:00am 16.9 14.7 14.4 85 1.4 SE 19 22 10 12 1015.2 1015.1 0.0
02/06:30am 16.8 14.9 14.3 85 1.4 SE 17 20 9 11 1015.4 1015.3 0.0
02/06:00am 16.8 14.5 14.1 84 1.5 SE 19 22 10 12 1014.9 1014.8 0.0
02/05:30am 17.3 14.8 13.6 79 2.1 ESE 19 28 10 15 1015.1 1015.0 0.0
02/05:00am 16.9 13.9 13.6 81 1.9 ESE 22 28 12 15 1014.7 1014.6 0.0
02/04:30am 16.6 12.7 13.3 81 1.9 ESE 26 33 14 18 1014.4 1014.3 0.0
02/04:00am 16.5 13.1 13.6 83 1.6 ESE 24 32 13 17 1014.7 1014.6 0.0
02/03:30am 16.0 12.7 12.7 81 1.8 ESE 22 32 12 17 1015.2 1015.1 0.0
02/03:00am 15.8 11.6 12.4 80 1.9 ESE 26 33 14 18 1015.0 1014.9 0.0
02/02:30am 15.7 11.4 11.9 78 2.1 ESE 26 35 14 19 1015.7 1015.6 0.0
02/02:00am 15.7 11.7 11.9 78 2.1 SE 24 33 13 18 1016.3 1016.2 0.0
02/01:30am 15.7 10.8 11.3 75 2.4 SE 28 35 15 19 1016.6 1016.5 0.0
02/01:00am 15.7 11.2 11.3 75 2.4 ESE 26 32 14 17 1017.1 1017.0 0.0
02/12:30am 15.7 10.8 11.3 75 2.4 SE 28 33 15 18 1017.3 1017.2 0.0
02/12:00am 15.8 10.9 11.2 74 2.5 SE 28 35 15 19 1017.4 1017.3 0.0
 
Date/Time
CDT
Temp
°C
App
Temp
°C
Dew
Point
Rel
Hum
%
Delta-T
°C
Wind Press
QNH
hPa
Press
MSL
hPa
Rain
since 9 am
mm
Dir
 
Spd
km/h
Gust
km/h
Spd
kts
Gust
kts
01/11:30pm 15.7 10.6 10.5 71 2.7 ESE 28 37 15 20 1017.4 1017.3 0.0
01/11:00pm 15.9 10.8 10.7 71 2.8 SE 28 35 15 19 1017.4 1017.3 0.0
01/10:30pm 16.2 10.4 10.7 70 2.9 SE 32 39 17 21 1017.6 1017.5 0.0
01/10:00pm 16.3 10.2 10.4 68 3.1 SE 33 41 18 22 1017.6 1017.5 0.0
01/09:30pm 16.7 11.2 10.5 67 3.3 SE 30 39 16 21 1017.7 1017.6 0.0
01/09:00pm 17.2 11.3 10.6 65 3.5 SE 32 41 17 22 1017.4 1017.3 0.0
01/08:30pm 17.6 12.0 10.2 62 3.9 ESE 30 37 16 20 1017.1 1017.0 0.0
01/08:00pm 17.9 12.9 10.8 63 3.8 ESE 28 37 15 20 1017.2 1017.1 0.0
01/07:30pm 18.5 13.8 10.8 61 4.2 ESE 26 32 14 17 1017.2 1017.1 0.0
01/07:00pm 19.3 15.0 10.6 57 4.7 ESE 24 32 13 17 1017.0 1016.9 0.0
01/06:30pm 20.0 16.2 11.0 56 4.9 ESE 22 30 12 16 1017.0 1016.9 0.0
01/06:00pm 20.4 17.0 11.1 55 5.1 ESE 20 28 11 15 1017.0 1016.9 0.0
01/05:30pm 21.1 16.9 11.2 53 5.5 E 24 30 13 16 1016.4 1016.3 0.0
01/05:00pm 21.1 17.9 11.4 54 5.4 E 19 28 10 15 1016.8 1016.7 0.0
01/04:30pm 21.7 19.3 11.4 52 5.7 E 15 20 8 11 1016.9 1016.8 0.0
01/04:00pm 20.7 19.0 11.1 54 5.3 SSE 11 17 6 9 1017.2 1017.1 0.0
01/03:30pm 21.5 19.7 10.9 51 5.8 SSE 11 17 6 9 1017.2 1017.1 0.0
01/03:00pm 21.3 18.6 10.5 50 5.9 S 15 19 8 10 1017.6 1017.5 0.0
01/02:30pm 21.7 19.7 11.4 52 5.7 SSW 13 19 7 10 1017.7 1017.6 0.0
01/02:00pm 22.4 19.9 11.2 49 6.2 S 15 22 8 12 1017.9 1017.8 0.0
01/01:30pm 21.8 19.3 11.2 51 5.9 S 15 24 8 13 1017.9 1017.8 0.0
01/01:00pm 21.4 18.6 11.4 53 5.6 S 17 22 9 12 1018.3 1018.2 0.0
01/12:30pm 20.9 19.4 11.8 56 5.1 SSW 11 17 6 9 1018.5 1018.4 0.0
01/12:00pm 20.0 17.9 11.0 56 4.9 S 13 19 7 10 1018.6 1018.5 0.0
01/11:30am 19.0 16.8 10.8 59 4.4 S 13 19 7 10 1018.8 1018.7 0.0
01/11:00am 18.6 15.2 10.7 60 4.3 S 19 26 10 14 1018.7 1018.6 0.0
01/10:30am 18.5 15.1 10.6 60 4.2 S 19 26 10 14 1018.4 1018.3 0.0
01/10:00am 18.9 14.7 11.0 60 4.3 S 24 32 13 17 1018.0 1017.9 0.0
01/09:30am 17.7 13.5 9.8 60 4.2 S 22 28 12 15 1017.6 1017.4 0.0
01/09:00am 17.9 14.1 9.8 59 4.3 S 20 26 11 14 1017.3 1017.1 1.8
01/08:30am 17.1 12.3 9.0 59 4.2 S 24 30 13 16 1017.0 1016.8 1.8
01/08:00am 16.6 12.0 9.5 63 3.7 S 24 30 13 16 1016.4 1016.2 1.8
01/07:30am 16.4 11.2 10.3 67 3.2 S 28 41 15 22 1015.9 1015.7 1.8
01/07:00am 16.3 11.0 9.7 65 3.5 S 28 35 15 19 1015.3 1015.1 1.8
01/06:30am 16.1 10.7 9.5 65 3.4 S 28 37 15 20 1015.0 1014.8 1.8
01/06:00am 16.6 10.8 10.7 68 3.1 S 32 43 17 23 1014.6 1014.4 1.8
01/05:30am 16.0 10.3 11.0 72 2.7 S 32 39 17 21 1014.3 1014.1 1.8
01/05:00am 16.3 10.8 11.9 75 2.4 S 32 41 17 22 1014.0 1013.8 1.8
01/04:30am 16.5 10.6 11.0 70 3.0 S 33 43 18 23 1013.7 1013.5 1.8
01/04:00am 16.5 11.6 10.1 66 3.4 SSW 26 33 14 18 1013.6 1013.4 1.8
01/03:30am 16.5 11.4 9.2 62 3.8 S 26 35 14 19 1013.6 1013.4 1.8
01/03:00am 16.4 9.8 8.4 59 4.1 S 33 43 18 23 1013.8 1013.6 1.8
01/02:30am 16.6 10.1 8.3 58 4.2 SSW 32 43 17 23 1013.7 1013.5 1.8
01/02:00am 16.8 12.0 10.2 65 3.5 SSW 26 37 14 20 1013.7 1013.5 1.8
01/01:30am 16.9 11.9 9.6 62 3.8 SSW 26 44 14 24 1013.7 1013.5 1.8
01/01:00am 17.0 11.0 10.8 67 3.3 SSW 33 44 18 24 1013.4 1013.2 1.8
01/12:30am 17.1 11.3 11.4 69 3.1 SSW 33 46 18 25 1013.4 1013.2 1.8
01/12:00am 17.4 12.5 11.4 68 3.3 SSW 28 43 15 23 1013.3 1013.1 1.8
 
Date/Time
CDT
Temp
°C
App
Temp
°C
Dew
Point
Rel
Hum
%
Delta-T
°C
Wind Press
QNH
hPa
Press
MSL
hPa
Rain
since 9 am
mm
Dir
 
Spd
km/h
Gust
km/h
Spd
kts
Gust
kts
28/11:30pm 17.4 12.1 11.4 68 3.3 SSW 30 44 16 24 1013.4 1013.2 1.8
28/11:00pm 17.6 11.8 11.6 68 3.3 SSW 33 46 18 25 1013.4 1013.2 1.8
28/10:30pm 17.5 12.6 12.4 72 2.8 SSW 30 43 16 23 1013.2 1013.0 1.8
28/10:00pm 17.6 12.4 12.7 73 2.7 SSW 32 43 17 23 1012.9 1012.7 1.8
28/09:30pm 17.7 13.0 13.2 75 2.5 SSW 30 43 16 23 1012.5 1012.3 1.8
28/09:00pm 17.8 13.3 13.9 78 2.2 SSW 30 41 16 22 1012.0 1011.8 1.8
28/08:30pm 17.9 14.5 14.8 82 1.8 SW 26 37 14 20 1011.3 1011.1 1.8
28/08:00pm 18.5 14.7 14.8 79 2.2 SSW 28 41 15 22 1010.9 1010.7 1.8
28/07:30pm 18.8 14.9 14.3 75 2.6 SSW 28 43 15 23 1010.1 1009.9 1.8
28/07:00pm 19.3 16.1 14.3 73 2.9 SSW 24 39 13 21 1009.7 1009.5 1.8
28/06:30pm 19.9 17.1 15.3 75 2.7 SW 24 37 13 20 1009.4 1009.2 1.8
28/06:00pm 20.4 17.1 14.1 67 3.7 SW 24 37 13 20 1009.0 1008.8 1.8
28/05:30pm 20.1 18.0 16.3 79 2.3 SW 22 35 12 19 1008.3 1008.1 1.8
28/05:00pm 20.1 18.8 17.3 84 1.7 SW 20 32 11 17 1008.0 1007.8 1.8
28/04:30pm 19.9 17.3 17.9 88 1.2 SSW 28 41 15 22 1007.4 1007.2 1.8
28/04:00pm 19.7 18.2 17.8 89 1.2 SSW 22 37 12 20 1007.4 1007.2 1.8
28/03:30pm 21.1 19.3 16.9 77 2.6 SSW 22 32 12 17 1006.9 1006.7 0.0
28/03:00pm 20.7 18.9 16.9 79 2.3 SW 22 33 12 18 1006.7 1006.5 0.0
28/02:30pm 20.5 17.9 17.7 84 1.7 SW 28 41 15 22 1006.0 1005.9 0.0
28/02:00pm 22.0 19.8 17.8 77 2.6 SW 26 35 14 19 1005.8 1005.7 0.0
28/01:30pm 23.5 21.6 17.7 70 3.6 SW 24 32 13 17 1005.3 1005.2 0.0
28/01:00pm 21.8 19.5 17.6 77 2.6 SW 26 35 14 19 1005.3 1005.2 0.0
28/12:30pm 23.5 21.8 17.3 68 3.9 SW 22 35 12 19 1005.5 1005.4 0.0
28/12:00pm 24.8 23.2 16.5 60 5.1 SW 20 28 11 15 1005.2 1005.1 0.0
28/11:30am 25.4 24.0 17.1 60 5.2 SW 20 28 11 15 1005.0 1004.9 0.0
28/11:00am 23.4 23.7 17.8 71 3.5 SW 13 19 7 10 1004.9 1004.8 0.0
28/10:30am 22.9 22.9 18.2 75 3.0 SW 15 20 8 11 1004.7 1004.6 0.0
28/10:00am 23.1 21.5 16.6 67 4.0 SW 20 28 11 15 1004.1 1004.0 0.0
28/09:30am 25.2 24.9 17.4 62 4.9 W 15 20 8 11 1004.3 1004.2 0.0
28/09:00am 24.4 24.0 17.1 63 4.5 WNW 15 22 8 12 1004.2 1004.1 0.0
28/08:30am 23.3 24.6 17.1 68 3.8 NNW 6 9 3 5 1003.9 1003.8 0.0
28/08:00am 21.0 21.3 14.6 67 3.8 N 6 7 3 4 1003.5 1003.4 0.0
28/07:30am 19.9 19.6 14.3 70 3.3 N 9 13 5 7 1003.3 1003.2 0.0
28/07:00am 20.0 19.6 14.1 69 3.4 N 9 9 5 5 1003.1 1003.0 0.0
28/06:30am 20.5 21.3 14.8 70 3.4 NNE 4 7 2 4 1003.0 1002.9 0.0
28/06:00am 20.9 21.5 15.2 70 3.4 NNE 6 9 3 5 1002.9 1002.8 0.0
28/05:30am 20.9 21.7 16.3 75 2.8 NE 7 9 4 5 1002.8 1002.7 0.0
28/05:00am 21.1 22.0 17.5 80 2.2 NE 9 11 5 6 1002.5 1002.4 0.0
28/04:30am 21.7 22.1 17.3 76 2.7 ENE 11 13 6 7 1002.5 1002.4 0.0
28/04:00am 22.1 22.2 16.6 71 3.4 ENE 11 15 6 8 1002.7 1002.6 0.0
28/03:30am 22.2 21.4 16.0 68 3.8 NE 15 20 8 11 1002.9 1002.8 0.0
28/03:00am 22.4 20.8 16.0 67 3.9 NE 19 24 10 13 1003.2 1003.1 0.0
28/02:30am 22.9 19.5 15.7 64 4.4 NE 28 37 15 20 1003.5 1003.4 0.0
28/02:00am 22.9 21.1 16.0 65 4.2 NE 20 30 11 16 1004.0 1003.9 0.0
28/01:30am 22.7 20.8 16.7 69 3.7 NE 22 28 12 15 1004.4 1004.3 0.0
28/01:00am 22.1 22.8 17.9 77 2.6 ENE 11 15 6 8 1004.9 1004.8 0.0
28/12:30am 21.5 22.4 18.3 82 2.0 ENE 11 15 6 8 1005.5 1005.4 0.0
28/12:00am 21.5 21.9 18.1 81 2.1 ENE 13 19 7 10 1005.9 1005.8 0.0
 
Date/Time
CDT
Temp
°C
App
Temp
°C
Dew
Point
Rel
Hum
%
Delta-T
°C
Wind Press
QNH
hPa
Press
MSL
hPa
Rain
since 9 am
mm
Dir
 
Spd
km/h
Gust
km/h
Spd
kts
Gust
kts
27/11:30pm 21.6 21.1 17.8 79 2.4 ENE 17 24 9 13 1006.3 1006.1 0.0
27/11:00pm 21.8 20.7 17.8 78 2.5 ENE 20 28 11 15 1007.2 1007.0 0.0
27/10:30pm 21.7 21.3 18.1 80 2.2 ENE 17 26 9 14 1007.6 1007.4 0.0
27/10:00pm 21.6 21.9 17.8 79 2.4 ENE 13 17 7 9 1007.8 1007.6 0.0
27/09:30pm 21.5 23.2 17.1 76 2.7 E 4 6 2 3 1008.2 1008.0 0.0
27/09:00pm 21.7 22.9 17.3 76 2.7 SE 7 11 4 6 1008.3 1008.1 0.0
27/08:30pm 22.2 22.5 16.9 72 3.3 ESE 11 20 6 11 1008.0 1007.8 0.0
27/08:00pm 22.3 23.9 16.8 71 3.4 ENE 4 9 2 5 1007.5 1007.3 0.0
27/07:30pm 22.6 24.0 16.4 68 3.8 E 4 9 2 5 1007.3 1007.1 0.0
27/07:00pm 22.5 22.8 17.0 71 3.4 ESE 11 15 6 8 1006.6 1006.4 0.0
27/06:30pm 22.9 23.8 16.0 65 4.2 ESE 6 13 3 7 1006.5 1006.3 0.0
27/06:00pm 22.8 23.9 16.6 68 3.8 ENE 6 7 3 4 1006.7 1006.5 0.0
27/05:30pm 22.2 23.6 17.3 74 3.0 E 6 9 3 5 1006.5 1006.3 0.0
27/05:00pm 22.3 23.9 18.3 78 2.5 E 7 11 4 6 1006.0 1005.9 0.0
27/04:30pm 23.2 23.6 18.1 73 3.2 ESE 13 17 7 9 1006.1 1006.0 0.0
27/04:00pm 22.7 23.9 18.3 76 2.8 ESE 9 13 5 7 1006.7 1006.5 0.0
27/03:30pm 22.4 23.6 18.2 77 2.6 ESE 9 13 5 7 1006.8 1006.6 0.0
27/03:00pm 22.6 23.8 18.2 76 2.8 SSE 9 11 5 6 1007.2 1007.0 0.0
27/02:30pm 22.4 23.7 18.4 78 2.5 SSE 9 13 5 7 1007.7 1007.5 0.0
27/02:00pm 23.0 23.9 18.3 75 3.0 S 11 13 6 7 1007.7 1007.5 0.0
27/01:30pm 24.2 25.4 18.2 69 3.8 SE 9 13 5 7 1007.8 1007.6 0.0
27/01:00pm 23.6 24.8 18.3 72 3.3 ESE 9 13 5 7 1008.3 1008.1 0.0
27/12:30pm 23.5 24.7 18.2 72 3.3 ESE 9 11 5 6 1008.5 1008.3 0.0
27/12:00pm 23.5 23.9 18.2 72 3.3 ESE 13 15 7 8 1008.7 1008.5 0.0
27/11:30am 23.3 23.7 18.2 73 3.2 ENE 13 19 7 10 1009.1 1008.9 0.0
27/11:00am 22.6 23.0 18.2 76 2.8 E 13 17 7 9 1009.5 1009.3 0.0
27/10:30am 21.9 22.6 17.9 78 2.5 ENE 11 13 6 7 1009.9 1009.7 0.0
27/10:00am 21.9 21.9 18.1 79 2.4 E 15 17 8 9 1009.6 1009.4 0.0
27/09:30am 21.4 21.7 17.8 80 2.2 E 13 15 7 8 1009.9 1009.7 0.0
27/09:00am 21.3 21.8 17.5 79 2.3 E 11 13 6 7 1009.9 1009.7 0.0
27/08:30am 21.3 21.8 17.5 79 2.3 E 11 15 6 8 1010.0 1009.8 0.0
27/08:00am 20.8 20.9 16.4 76 2.7 ENE 11 13 6 7 1009.7 1009.5 0.0
27/07:30am 20.2 20.3 16.6 80 2.2 ENE 11 15 6 8 1009.2 1009.0 0.0

Other Formats:

Comma delimited format used in spreadsheet applications
http://www.bom.gov.au/fwo/IDS60801/IDS60801.95806.axf

JavaScript Object Notation format (JSON) in row-major order
http://www.bom.gov.au/fwo/IDS60801/IDS60801.95806.json